createdAt,value
2023-10-17T00:00:43.990Z,188.94
2023-10-17T00:01:39.018Z,192.93
2023-10-17T00:02:34.066Z,190.47
2023-10-17T00:03:29.186Z,194.31
2023-10-17T00:04:24.404Z,197.58
2023-10-17T00:05:19.402Z,196.52
2023-10-17T00:06:14.384Z,196.99
2023-10-17T00:07:09.241Z,195.81
2023-10-17T00:08:04.326Z,199.51
2023-10-17T00:08:59.329Z,202.09
2023-10-17T00:09:54.407Z,206.54
2023-10-17T00:10:49.420Z,207.32
2023-10-17T00:11:44.608Z,211.46
2023-10-17T00:12:39.864Z,211.60
2023-10-17T00:13:34.928Z,211.46
2023-10-17T00:14:30.246Z,211.05
2023-10-17T00:15:25.359Z,215.35
2023-10-17T00:16:20.435Z,216.20
2023-10-17T00:17:15.601Z,215.35
2023-10-17T00:18:10.852Z,214.08
2023-10-17T00:19:06.017Z,214.50
2023-10-17T00:20:01.157Z,217.78
2023-10-17T00:20:55.994Z,222.50
2023-10-17T00:21:51.002Z,222.05
2023-10-17T00:22:46.052Z,225.87
2023-10-17T00:23:41.058Z,224.18
2023-10-17T00:24:36.446Z,223.72
2023-10-17T00:25:31.177Z,224.33
2023-10-17T00:26:26.226Z,220.71
2023-10-17T00:27:21.252Z,220.86
2023-10-17T00:28:16.309Z,220.71
2023-10-17T00:29:11.398Z,222.50
2023-10-17T00:30:06.642Z,221.45
2023-10-17T00:31:01.522Z,223.41
2023-10-17T00:31:56.554Z,224.33
2023-10-17T00:32:51.601Z,219.23
2023-10-17T00:33:46.672Z,221.30
2023-10-17T00:34:41.700Z,217.49
2023-10-17T00:35:36.775Z,221.90
2023-10-17T00:36:31.774Z,218.21
2023-10-17T00:37:26.861Z,216.63
2023-10-17T00:38:21.987Z,215.63
2023-10-17T00:39:17.323Z,216.63
2023-10-17T00:40:12.546Z,215.35
2023-10-17T00:41:08.850Z,215.63
2023-10-17T00:42:02.763Z,217.06
2023-10-17T00:42:57.927Z,218.50
2023-10-17T00:43:53.091Z,220.56
2023-10-17T00:44:49.159Z,222.05
2023-10-17T00:45:44.456Z,222.65
2023-10-17T00:46:39.775Z,225.25
2023-10-17T00:47:35.805Z,226.65
2023-10-17T00:48:31.109Z,229.67
2023-10-17T00:49:26.746Z,229.19
2023-10-17T00:50:21.937Z,231.45
2023-10-17T00:51:17.257Z,230.96
2023-10-17T00:52:13.006Z,232.27
2023-10-17T00:53:08.240Z,233.43
2023-10-17T00:54:04.105Z,233.26
2023-10-17T00:54:59.249Z,234.76
2023-10-17T00:55:54.587Z,234.26
2023-10-17T00:56:50.291Z,232.76
2023-10-17T00:57:45.490Z,233.76
2023-10-17T00:58:40.658Z,233.59
2023-10-17T00:59:37.074Z,232.10
2023-10-17T01:00:32.479Z,231.45
2023-10-17T01:01:28.209Z,231.94
2023-10-17T01:02:23.371Z,231.61
2023-10-17T01:03:18.496Z,230.48
2023-10-17T01:04:14.207Z,229.83
2023-10-17T01:05:09.435Z,229.03
2023-10-17T01:06:05.205Z,232.93
2023-10-17T01:07:00.365Z,231.45
2023-10-17T01:07:55.614Z,230.15
2023-10-17T01:08:51.506Z,229.03
2023-10-17T01:09:46.699Z,230.96
2023-10-17T01:10:42.016Z,231.45
2023-10-17T01:11:38.309Z,233.76
2023-10-17T01:12:33.516Z,234.26
2023-10-17T01:13:29.218Z,233.93
2023-10-17T01:14:24.471Z,236.97
2023-10-17T01:15:19.630Z,238.69
2023-10-17T01:16:15.394Z,240.26
2023-10-17T01:17:10.531Z,243.83
2023-10-17T01:18:06.685Z,245.11
2023-10-17T01:19:01.582Z,246.77
2023-10-17T01:19:56.788Z,249.02
2023-10-17T01:20:52.681Z,252.66
2023-10-17T01:21:47.745Z,252.08
2023-10-17T01:22:43.088Z,255.01
2023-10-17T01:23:39.323Z,256.21
2023-10-17T01:24:34.572Z,257.01
2023-10-17T01:25:30.356Z,257.62
2023-10-17T01:26:25.768Z,258.63
2023-10-17T01:27:21.022Z,257.82
2023-10-17T01:28:16.628Z,256.41
2023-10-17T01:29:11.825Z,257.62
2023-10-17T01:30:07.592Z,258.23
2023-10-17T01:31:02.809Z,258.43
2023-10-17T01:31:58.001Z,258.84
2023-10-17T01:32:53.832Z,259.04
2023-10-17T01:33:48.895Z,258.84
2023-10-17T01:34:44.059Z,258.23
2023-10-17T01:35:40.338Z,259.45
2023-10-17T01:36:35.426Z,258.23
2023-10-17T01:37:31.130Z,258.63
2023-10-17T01:38:26.292Z,259.45
2023-10-17T01:39:21.407Z,260.48
2023-10-17T01:40:17.121Z,258.63
2023-10-17T01:41:12.339Z,257.62
2023-10-17T01:42:08.237Z,257.21
2023-10-17T01:43:03.420Z,256.81
2023-10-17T01:43:58.615Z,257.01
2023-10-17T01:44:53.752Z,254.42
2023-10-17T01:45:49.147Z,254.23
2023-10-17T01:46:44.768Z,252.85
2023-10-17T01:47:39.958Z,252.27
2023-10-17T01:48:35.051Z,252.08
2023-10-17T01:49:30.911Z,251.69
2023-10-17T01:50:26.221Z,252.08
2023-10-17T01:51:21.978Z,251.11
2023-10-17T01:52:17.094Z,249.58
2023-10-17T01:53:12.438Z,248.64
2023-10-17T01:54:08.291Z,246.58
2023-10-17T01:55:03.531Z,245.11
2023-10-17T01:55:58.667Z,246.21
2023-10-17T01:56:55.016Z,246.03
2023-10-17T01:57:50.135Z,245.11
2023-10-17T01:58:46.000Z,243.29
2023-10-17T01:59:41.161Z,243.47
2023-10-17T02:00:36.596Z,244.20
2023-10-17T02:01:31.701Z,244.93
2023-10-17T02:02:26.585Z,245.84
2023-10-17T02:03:21.600Z,244.93
2023-10-17T02:04:16.696Z,246.58
2023-10-17T02:05:11.739Z,248.83
2023-10-17T02:06:06.915Z,248.64
2023-10-17T02:07:01.742Z,249.77
2023-10-17T02:07:56.832Z,250.54
2023-10-17T02:08:51.825Z,251.50
2023-10-17T02:09:46.895Z,250.92
2023-10-17T02:10:45.354Z,253.44
2023-10-17T02:11:40.257Z,253.44
2023-10-17T02:12:35.313Z,249.58
2023-10-17T02:13:30.357Z,248.07
2023-10-17T02:14:25.491Z,246.21
2023-10-17T02:15:20.519Z,248.26
2023-10-17T02:16:15.497Z,247.33
2023-10-17T02:17:10.550Z,249.96
2023-10-17T02:18:05.910Z,251.88
2023-10-17T02:19:01.058Z,255.61
2023-10-17T02:19:56.352Z,256.01
2023-10-17T02:20:51.616Z,260.90
2023-10-17T02:21:46.517Z,263.20
2023-10-17T02:22:42.419Z,263.41
2023-10-17T02:23:37.540Z,267.93
2023-10-17T02:24:32.922Z,269.47
2023-10-17T02:25:27.912Z,271.47
2023-10-17T02:26:22.989Z,273.05
2023-10-17T02:27:18.021Z,272.15
2023-10-17T02:28:13.166Z,274.42
2023-10-17T02:29:08.335Z,275.81
2023-10-17T02:30:03.556Z,273.97
2023-10-17T02:30:58.827Z,275.35
2023-10-17T02:31:53.920Z,275.35
2023-10-17T02:32:49.023Z,275.11
2023-10-17T02:33:44.222Z,275.58
2023-10-17T02:34:39.495Z,275.58
2023-10-17T02:35:38.064Z,271.92
2023-10-17T02:36:33.277Z,271.92
2023-10-17T02:37:28.419Z,270.13
2023-10-17T02:38:23.587Z,269.47
2023-10-17T02:39:18.966Z,267.93
2023-10-17T02:40:14.205Z,268.36
2023-10-17T02:41:09.475Z,267.49
2023-10-17T02:42:04.308Z,269.47
2023-10-17T02:42:59.300Z,270.58
2023-10-17T02:43:54.367Z,270.58
2023-10-17T02:44:49.436Z,270.80
2023-10-17T02:45:44.616Z,272.15
2023-10-17T02:46:45.258Z,272.15
2023-10-17T02:47:41.120Z,275.35
2023-10-17T02:48:35.702Z,277.44
2023-10-17T02:49:31.445Z,277.44
2023-10-17T02:50:26.642Z,261.10
2023-10-17T02:51:21.890Z,256.81
2023-10-17T02:52:18.004Z,260.69
2023-10-17T02:53:13.216Z,262.36
2023-10-17T02:54:08.942Z,265.54
2023-10-17T02:55:04.118Z,266.84
2023-10-17T02:55:59.318Z,268.36
2023-10-17T02:56:55.091Z,267.93
2023-10-17T02:57:50.253Z,268.58
2023-10-17T02:58:46.261Z,263.83
2023-10-17T02:59:41.279Z,264.68
2023-10-17T03:00:36.692Z,265.33
2023-10-17T03:01:33.036Z,264.90
2023-10-17T03:02:27.823Z,265.11
2023-10-17T03:03:23.100Z,264.68
2023-10-17T03:04:19.504Z,266.40
2023-10-17T03:05:14.538Z,266.84
2023-10-17T03:06:10.551Z,264.05
2023-10-17T03:07:05.405Z,263.83
2023-10-17T03:08:00.741Z,263.20
2023-10-17T03:08:56.348Z,265.11
2023-10-17T03:09:51.543Z,269.91
2023-10-17T03:10:49.935Z,272.15
2023-10-17T03:11:42.605Z,274.88
2023-10-17T03:12:37.960Z,276.97
2023-10-17T03:13:33.025Z,277.91
2023-10-17T03:14:28.942Z,274.65
2023-10-17T03:15:23.942Z,272.60
2023-10-17T03:16:19.184Z,271.47
2023-10-17T03:17:15.144Z,270.35
2023-10-17T03:18:10.252Z,263.20
2023-10-17T03:19:05.505Z,259.45
2023-10-17T03:20:01.792Z,260.90
2023-10-17T03:20:57.002Z,262.36
2023-10-17T03:21:52.903Z,259.86
2023-10-17T03:22:47.928Z,256.81
2023-10-17T03:23:43.227Z,258.23
2023-10-17T03:24:39.084Z,259.04
2023-10-17T03:25:34.671Z,258.63
2023-10-17T03:26:30.104Z,261.52
2023-10-17T03:27:25.260Z,262.36
2023-10-17T03:28:20.622Z,262.57
2023-10-17T03:29:16.227Z,261.52
2023-10-17T03:30:11.464Z,259.66
2023-10-17T03:31:06.618Z,259.04
2023-10-17T03:32:03.228Z,201.96
2023-10-17T03:32:58.314Z,153.38
2023-10-17T03:33:54.060Z,160.61
2023-10-17T03:34:49.191Z,174.37
2023-10-17T03:35:44.423Z,185.31
2023-10-17T03:36:40.459Z,199.99
2023-10-17T03:37:35.438Z,209.04
2023-10-17T03:38:31.135Z,215.63
2023-10-17T03:39:26.286Z,220.26
2023-10-17T03:40:21.486Z,227.60
2023-10-17T03:41:17.367Z,229.67
2023-10-17T03:42:12.731Z,233.43
2023-10-17T03:43:07.879Z,236.80
2023-10-17T03:44:03.200Z,240.62
2023-10-17T03:44:59.150Z,239.39
2023-10-17T03:45:54.336Z,242.75
2023-10-17T03:46:49.838Z,243.65
2023-10-17T03:47:45.350Z,244.02
2023-10-17T03:48:40.559Z,246.95
2023-10-17T03:49:35.604Z,249.96
2023-10-17T03:50:32.034Z,249.96
2023-10-17T03:51:27.341Z,250.35
2023-10-17T03:52:23.233Z,253.24
2023-10-17T03:53:18.271Z,253.64
2023-10-17T03:54:13.593Z,256.21
2023-10-17T03:55:09.354Z,254.62
2023-10-17T03:56:04.603Z,254.42
2023-10-17T03:57:00.481Z,252.85
2023-10-17T03:57:55.522Z,252.46
2023-10-17T03:58:50.868Z,254.42
2023-10-17T03:59:46.028Z,251.11
2023-10-17T04:00:41.180Z,247.14
2023-10-17T04:01:36.271Z,245.48
2023-10-17T04:02:31.545Z,245.48
2023-10-17T04:03:26.572Z,244.20
2023-10-17T04:04:27.338Z,244.56
2023-10-17T04:05:17.658Z,242.57
2023-10-17T04:06:11.648Z,245.84
2023-10-17T04:07:06.671Z,249.58
2023-10-17T04:08:01.909Z,253.83
2023-10-17T04:08:56.891Z,256.41
2023-10-17T04:09:53.130Z,256.01
2023-10-17T04:10:48.224Z,259.04
2023-10-17T04:11:43.364Z,260.27
2023-10-17T04:12:38.633Z,261.94
2023-10-17T04:13:33.953Z,262.99
2023-10-17T04:14:29.111Z,263.62
2023-10-17T04:15:25.391Z,264.05
2023-10-17T04:16:20.684Z,264.05
2023-10-17T04:17:15.881Z,265.11
2023-10-17T04:18:15.328Z,263.41
2023-10-17T04:19:10.313Z,264.05
2023-10-17T04:20:05.537Z,263.20
2023-10-17T04:21:00.600Z,263.83
2023-10-17T04:22:09.898Z,261.10
2023-10-17T04:22:53.199Z,262.15
2023-10-17T04:23:47.520Z,260.90
2023-10-17T04:24:42.453Z,257.01
2023-10-17T04:25:37.616Z,257.82
2023-10-17T04:26:32.773Z,258.02
2023-10-17T04:27:27.969Z,258.43
2023-10-17T04:28:23.271Z,259.25
2023-10-17T04:29:18.929Z,258.84
2023-10-17T04:30:14.123Z,260.07
2023-10-17T04:31:10.006Z,257.01
2023-10-17T04:32:05.129Z,257.21
2023-10-17T04:33:00.516Z,257.82
2023-10-17T04:33:56.347Z,258.23
2023-10-17T04:34:51.413Z,257.82
2023-10-17T04:35:46.575Z,257.82
2023-10-17T04:36:42.974Z,259.86
2023-10-17T04:37:38.192Z,258.23
2023-10-17T04:38:34.236Z,258.84
2023-10-17T04:39:29.251Z,259.45
2023-10-17T04:40:24.600Z,259.25
2023-10-17T04:41:20.189Z,258.63
2023-10-17T04:42:15.451Z,256.61
2023-10-17T04:43:11.130Z,253.83
2023-10-17T04:44:06.458Z,252.46
2023-10-17T04:45:01.606Z,248.45
2023-10-17T04:45:57.412Z,244.38
2023-10-17T04:46:52.557Z,239.91
2023-10-17T04:47:47.783Z,236.11
2023-10-17T04:48:44.110Z,234.09
2023-10-17T04:49:39.313Z,230.48
2023-10-17T04:50:35.088Z,230.64
2023-10-17T04:51:30.308Z,230.15
2023-10-17T04:52:25.483Z,232.60
2023-10-17T04:53:21.340Z,230.31
2023-10-17T04:54:16.464Z,228.39
2023-10-17T04:55:12.354Z,226.34
2023-10-17T04:56:07.271Z,227.28
2023-10-17T04:57:02.532Z,227.60
2023-10-17T04:57:58.284Z,226.81
2023-10-17T04:58:53.497Z,226.50
2023-10-17T04:59:48.753Z,217.35
2023-10-17T05:00:45.337Z,182.78
2023-10-17T05:01:40.392Z,166.21
2023-10-17T05:02:36.245Z,166.21
2023-10-17T05:03:31.434Z,171.15
2023-10-17T05:04:26.928Z,178.29
2023-10-17T05:05:22.562Z,185.62
2023-10-17T05:06:17.872Z,183.78
2023-10-17T05:07:13.907Z,185.62
2023-10-17T05:08:09.076Z,187.64
2023-10-17T05:09:04.450Z,195.23
2023-10-17T05:10:00.099Z,200.48
2023-10-17T05:10:55.458Z,203.21
2023-10-17T05:11:50.547Z,204.22
2023-10-17T05:12:46.972Z,207.98
2023-10-17T05:13:42.137Z,212.28
2023-10-17T05:14:37.349Z,216.63
2023-10-17T05:15:33.311Z,217.78
2023-10-17T05:16:28.575Z,216.63
2023-10-17T05:17:24.256Z,216.34
2023-10-17T05:18:19.457Z,213.11
2023-10-17T05:19:14.650Z,211.74
2023-10-17T05:20:10.294Z,209.44
2023-10-17T05:21:05.525Z,209.30
2023-10-17T05:22:00.822Z,209.84
2023-10-17T05:22:57.029Z,210.11
2023-10-17T05:23:52.206Z,208.77
2023-10-17T05:24:48.114Z,209.57
2023-10-17T05:25:43.346Z,208.64
2023-10-17T05:26:38.627Z,208.64
2023-10-17T05:27:34.540Z,207.71
2023-10-17T05:28:29.765Z,208.24
2023-10-17T05:29:25.017Z,209.57
2023-10-17T05:30:20.293Z,214.36
2023-10-17T05:31:15.577Z,215.63
2023-10-17T05:32:10.760Z,216.63
2023-10-17T05:33:05.681Z,216.63
2023-10-17T05:34:00.769Z,201.34
2023-10-17T05:34:55.757Z,196.05
2023-10-17T05:35:50.883Z,199.87
2023-10-17T05:36:45.990Z,202.71
2023-10-17T05:37:41.033Z,202.21
2023-10-17T05:38:35.974Z,203.59
2023-10-17T05:39:31.070Z,207.85
2023-10-17T05:40:26.060Z,208.51
2023-10-17T05:41:21.134Z,208.51
2023-10-17T05:42:16.186Z,211.33
2023-10-17T05:43:11.253Z,213.53
2023-10-17T05:44:06.274Z,214.22
2023-10-17T05:45:01.320Z,212.28
2023-10-17T05:45:56.377Z,214.08
2023-10-17T05:46:51.390Z,212.83
2023-10-17T05:47:46.477Z,209.71
2023-10-17T05:48:41.505Z,209.71
2023-10-17T05:49:36.491Z,209.97
2023-10-17T05:50:31.749Z,210.92
2023-10-17T05:51:26.749Z,209.30
2023-10-17T05:52:21.990Z,206.02
2023-10-17T05:53:16.800Z,198.90
2023-10-17T05:54:37.163Z,186.89
2023-10-17T05:56:02.050Z,182.38
2023-10-17T05:56:57.002Z,184.19
2023-10-17T05:57:52.291Z,185.20
2023-10-17T05:58:47.200Z,190.03
2023-10-17T05:59:42.263Z,193.85
2023-10-17T06:00:37.366Z,196.87
2023-10-17T06:01:32.755Z,199.26
2023-10-17T06:02:28.250Z,193.96
2023-10-17T06:03:23.547Z,185.42
2023-10-17T06:04:18.927Z,185.62
2023-10-17T06:05:14.253Z,181.58
2023-10-17T06:06:18.028Z,177.90
2023-10-17T06:07:05.919Z,180.80
2023-10-17T06:08:00.330Z,185.01
2023-10-17T06:08:55.562Z,186.47
2023-10-17T06:09:50.959Z,188.50
2023-10-17T06:10:46.240Z,189.81
2023-10-17T06:11:41.539Z,190.91
2023-10-17T06:12:37.076Z,187.53
2023-10-17T06:13:32.347Z,189.81
2023-10-17T06:14:27.430Z,191.70
2023-10-17T06:15:22.679Z,189.59
2023-10-17T06:16:18.098Z,187.21
2023-10-17T06:17:13.388Z,186.47
2023-10-17T06:18:08.501Z,186.04
2023-10-17T06:19:03.403Z,185.62
2023-10-17T06:19:58.427Z,185.52
2023-10-17T06:20:53.422Z,184.79
2023-10-17T06:21:48.570Z,185.62
2023-10-17T06:22:43.565Z,184.60
2023-10-17T06:23:38.885Z,182.78
2023-10-17T06:24:33.747Z,184.39
2023-10-17T06:25:28.776Z,185.83
2023-10-17T06:26:23.745Z,185.42
2023-10-17T06:27:18.828Z,186.24
2023-10-17T06:28:13.982Z,185.83
2023-10-17T06:29:08.988Z,181.98
2023-10-17T06:30:04.015Z,182.38
2023-10-17T06:30:59.058Z,182.58
2023-10-17T06:31:54.047Z,182.98
2023-10-17T06:32:49.140Z,186.04
2023-10-17T06:33:44.415Z,184.99
2023-10-17T06:34:39.709Z,185.41
2023-10-17T06:35:36.475Z,184.89
2023-10-17T06:36:31.993Z,186.15
2023-10-17T06:37:27.529Z,185.73
2023-10-17T06:38:22.867Z,186.36
2023-10-17T06:39:18.386Z,187.00
2023-10-17T06:40:13.666Z,186.47
2023-10-17T06:41:09.147Z,185.73
2023-10-17T06:42:04.455Z,184.79
2023-10-17T06:42:59.789Z,181.39
2023-10-17T06:43:55.253Z,179.43
2023-10-17T06:44:50.482Z,177.53
2023-10-17T06:45:45.863Z,177.90
2023-10-17T06:46:41.173Z,178.67
2023-10-17T06:47:36.644Z,178.10
2023-10-17T06:48:31.943Z,176.40
2023-10-17T06:49:27.316Z,174.19
2023-10-17T06:50:22.661Z,177.34
2023-10-17T06:51:18.128Z,176.77
2023-10-17T06:52:13.225Z,175.66
2023-10-17T06:53:08.245Z,179.24
2023-10-17T06:54:03.296Z,178.67
2023-10-17T06:54:58.338Z,182.58
2023-10-17T06:55:53.420Z,180.80
2023-10-17T06:56:48.415Z,180.02
2023-10-17T06:57:43.561Z,183.38
2023-10-17T06:58:41.069Z,180.02
2023-10-17T06:59:35.997Z,116.13
2023-10-17T07:00:31.208Z,110.00
2023-10-17T07:01:26.473Z,116.21
2023-10-17T07:02:21.362Z,122.88
2023-10-17T07:03:16.498Z,111.55
2023-10-17T07:04:11.630Z,107.45
2023-10-17T07:05:06.592Z,116.45
2023-10-17T07:06:01.675Z,90.66
2023-10-17T07:06:57.124Z,65.58
2023-10-17T07:07:52.425Z,73.36
2023-10-17T07:08:47.964Z,85.64
2023-10-17T07:09:43.411Z,96.51
2023-10-17T07:10:38.693Z,107.38
2023-10-17T07:11:33.982Z,118.94
2023-10-17T07:12:29.486Z,126.13
2023-10-17T07:13:24.763Z,134.68
2023-10-17T07:14:20.411Z,139.41
2023-10-17T07:15:15.624Z,143.12
2023-10-17T07:16:11.077Z,148.73
2023-10-17T07:17:06.339Z,151.02
2023-10-17T07:18:03.076Z,153.38
2023-10-17T07:18:58.452Z,152.96
2023-10-17T07:19:54.011Z,152.54
2023-10-17T07:20:49.168Z,152.26
2023-10-17T07:21:45.115Z,153.94
2023-10-17T07:22:40.632Z,156.69
2023-10-17T07:23:36.401Z,158.18
2023-10-17T07:24:32.236Z,158.78
2023-10-17T07:25:27.227Z,127.97
2023-10-17T07:26:22.551Z,94.25
2023-10-17T07:27:18.000Z,92.68
2023-10-17T07:28:12.936Z,98.68
2023-10-17T07:29:08.029Z,107.59
2023-10-17T07:30:03.084Z,116.78
2023-10-17T07:30:58.165Z,124.63
2023-10-17T07:31:53.182Z,131.92
2023-10-17T07:32:48.271Z,138.14
2023-10-17T07:33:43.416Z,144.11
2023-10-17T07:34:38.945Z,147.81
2023-10-17T07:35:33.985Z,150.74
2023-10-17T07:36:29.236Z,154.23
2023-10-17T07:37:24.339Z,154.66
2023-10-17T07:38:19.339Z,156.40
2023-10-17T07:39:14.408Z,156.99
2023-10-17T07:40:09.473Z,151.57
2023-10-17T07:41:04.500Z,148.60
2023-10-17T07:41:59.545Z,149.40
2023-10-17T07:42:54.607Z,149.13
2023-10-17T07:43:49.655Z,148.60
2023-10-17T07:44:44.751Z,149.26
2023-10-17T07:45:40.428Z,152.26
2023-10-17T07:46:34.959Z,153.94
2023-10-17T07:47:30.347Z,156.40
2023-10-17T07:48:25.926Z,156.99
2023-10-17T07:49:21.144Z,160.15
2023-10-17T07:50:16.426Z,159.54
2023-10-17T07:51:12.066Z,163.60
2023-10-17T07:52:07.222Z,169.76
2023-10-17T07:53:02.690Z,176.77
2023-10-17T07:53:57.972Z,181.19
2023-10-17T07:54:53.454Z,185.01
2023-10-17T07:55:48.756Z,185.83
2023-10-17T07:56:44.345Z,188.29
2023-10-17T07:57:43.778Z,189.59
2023-10-17T07:58:39.177Z,191.03
2023-10-17T07:59:34.587Z,192.93
2023-10-17T08:00:31.942Z,196.52
2023-10-17T08:01:25.544Z,198.18
2023-10-17T08:02:20.757Z,199.63
2023-10-17T08:03:16.773Z,198.06
2023-10-17T08:04:11.560Z,196.75
2023-10-17T08:05:07.008Z,198.42
2023-10-17T08:06:02.420Z,200.85
2023-10-17T08:06:57.722Z,207.06
2023-10-17T08:07:53.083Z,207.32
2023-10-17T08:08:48.488Z,206.80
2023-10-17T08:09:44.000Z,209.30
2023-10-17T08:10:39.308Z,209.04
2023-10-17T08:11:34.795Z,208.77
2023-10-17T08:12:30.125Z,209.71
2023-10-17T08:13:25.571Z,211.46
2023-10-17T08:14:21.357Z,214.22
2023-10-17T08:15:16.826Z,212.97
2023-10-17T08:16:12.028Z,211.46
2023-10-17T08:18:32.485Z,188.83
2023-10-17T08:19:27.761Z,193.96
2023-10-17T08:20:22.959Z,198.18
2023-10-17T08:21:18.457Z,200.11
2023-10-17T08:22:13.744Z,204.99
2023-10-17T08:23:09.196Z,209.44
2023-10-17T08:24:04.516Z,213.80
2023-10-17T08:24:59.988Z,216.77
2023-10-17T08:25:55.292Z,212.83
2023-10-17T08:26:50.823Z,210.51
2023-10-17T08:27:46.123Z,209.97
2023-10-17T08:28:41.661Z,207.58
2023-10-17T08:29:36.806Z,206.93
2023-10-17T08:30:44.213Z,206.41
2023-10-17T08:31:28.779Z,207.85
2023-10-17T08:32:23.143Z,208.90
2023-10-17T08:33:18.435Z,208.64
2023-10-17T08:34:13.772Z,209.44
2023-10-17T08:35:09.181Z,212.42
2023-10-17T08:36:04.788Z,213.25
2023-10-17T08:36:59.984Z,214.08
2023-10-17T08:37:55.442Z,212.97
2023-10-17T08:38:50.727Z,214.08
2023-10-17T08:39:46.198Z,212.83
2023-10-17T08:40:41.549Z,209.71
2023-10-17T08:41:36.889Z,209.30
2023-10-17T08:42:32.638Z,211.33
2023-10-17T08:43:27.769Z,215.49
2023-10-17T08:44:23.070Z,218.79
2023-10-17T08:45:18.552Z,221.30
2023-10-17T08:46:14.057Z,218.21
2023-10-17T08:47:09.275Z,216.91
2023-10-17T08:48:04.615Z,216.77
2023-10-17T08:49:00.003Z,217.35
2023-10-17T08:49:55.272Z,216.91
2023-10-17T08:50:50.735Z,215.63
2023-10-17T08:51:46.117Z,212.70
2023-10-17T08:52:41.767Z,210.92
2023-10-17T08:53:38.026Z,214.36
2023-10-17T08:54:32.407Z,216.34
2023-10-17T08:55:27.840Z,219.23
2023-10-17T08:56:23.347Z,221.01
2023-10-17T08:57:18.676Z,220.12
2023-10-17T08:58:14.147Z,221.15
2023-10-17T08:59:09.550Z,221.45
2023-10-17T09:00:04.879Z,222.20
2023-10-17T09:01:00.430Z,223.41
2023-10-17T09:01:55.665Z,224.64
2023-10-17T09:02:51.297Z,225.41
2023-10-17T09:03:46.548Z,226.81
2023-10-17T09:04:42.038Z,225.72
2023-10-17T09:05:37.349Z,226.97
2023-10-17T09:06:32.800Z,224.64
2023-10-17T09:07:28.107Z,224.95
2023-10-17T09:08:23.715Z,224.64
2023-10-17T09:09:19.145Z,224.02
2023-10-17T09:10:14.312Z,222.81
2023-10-17T09:11:09.709Z,221.75
2023-10-17T09:12:05.243Z,220.56
2023-10-17T09:13:00.648Z,218.79
2023-10-17T09:13:55.947Z,218.07
2023-10-17T09:14:51.264Z,218.50
2023-10-17T09:15:46.734Z,219.53
2023-10-17T09:16:42.028Z,220.26
2023-10-17T09:17:37.390Z,219.53
2023-10-17T09:18:32.839Z,215.21
2023-10-17T09:19:28.264Z,212.42
2023-10-17T09:20:23.440Z,212.70
2023-10-17T09:21:18.890Z,212.15
2023-10-17T09:22:14.230Z,212.56
2023-10-17T09:23:09.747Z,216.63
2023-10-17T09:24:05.103Z,216.91
2023-10-17T09:25:00.508Z,216.91
2023-10-17T09:25:55.828Z,214.08
2023-10-17T09:26:51.368Z,214.93
2023-10-17T09:27:46.896Z,214.64
2023-10-17T09:28:42.422Z,214.64
2023-10-17T09:29:37.630Z,213.94
2023-10-17T09:30:33.080Z,214.22
2023-10-17T09:31:28.491Z,212.70
2023-10-17T09:32:24.036Z,214.36
2023-10-17T09:33:19.545Z,213.25
2023-10-17T09:34:14.950Z,211.33
2023-10-17T09:35:10.415Z,210.78
2023-10-17T09:36:05.839Z,207.32
2023-10-17T09:37:01.392Z,205.63
2023-10-17T09:37:56.738Z,205.76
2023-10-17T09:38:52.059Z,202.96
2023-10-17T09:39:47.521Z,201.46
2023-10-17T09:40:49.267Z,201.96
2023-10-17T09:41:39.512Z,201.09
2023-10-17T09:42:33.749Z,204.61
2023-10-17T09:43:29.320Z,202.33
2023-10-17T09:44:24.796Z,204.99
2023-10-17T09:46:15.610Z,207.19
2023-10-17T09:47:10.883Z,206.67
2023-10-17T09:48:07.102Z,205.76
2023-10-17T09:49:02.019Z,203.72
2023-10-17T09:49:57.026Z,200.73
2023-10-17T09:50:52.273Z,198.06
2023-10-17T09:51:47.636Z,198.06
2023-10-17T09:52:42.989Z,198.78
2023-10-17T09:53:38.261Z,199.87
2023-10-17T09:54:33.793Z,200.48
2023-10-17T09:55:29.084Z,198.66
2023-10-17T09:56:24.513Z,199.87
2023-10-17T09:57:19.998Z,199.99
2023-10-17T09:58:15.205Z,199.38
2023-10-17T09:59:10.766Z,198.54
2023-10-17T10:00:05.987Z,197.94
2023-10-17T10:01:01.326Z,198.30
2023-10-17T10:01:56.876Z,199.02
2023-10-17T10:03:01.590Z,198.90
2023-10-17T10:03:48.850Z,198.54
2023-10-17T10:04:43.300Z,199.02
2023-10-17T10:05:38.773Z,197.82
2023-10-17T10:06:34.758Z,195.70
2023-10-17T10:07:29.536Z,196.28
2023-10-17T10:08:24.899Z,195.93
2023-10-17T10:09:20.614Z,195.35
2023-10-17T10:10:15.969Z,196.05
2023-10-17T10:11:11.344Z,194.42
2023-10-17T10:12:06.808Z,192.71
2023-10-17T10:13:02.346Z,192.37
2023-10-17T10:13:57.696Z,187.32
2023-10-17T10:14:53.294Z,187.53
2023-10-17T10:15:48.712Z,186.04
2023-10-17T10:16:44.108Z,184.89
2023-10-17T10:17:39.449Z,185.31
2023-10-17T10:18:34.892Z,185.73
2023-10-17T10:19:30.399Z,185.52
2023-10-17T10:20:25.873Z,185.41
2023-10-17T10:21:21.292Z,186.79
2023-10-17T10:22:16.680Z,185.20
2023-10-17T10:23:12.192Z,185.10
2023-10-17T10:24:07.459Z,185.94
2023-10-17T10:25:02.834Z,187.53
2023-10-17T10:25:58.248Z,187.85
2023-10-17T10:26:53.583Z,187.43
2023-10-17T10:27:48.969Z,185.52
2023-10-17T10:28:44.243Z,186.47
2023-10-17T10:29:39.730Z,188.94
2023-10-17T10:30:35.089Z,189.37
2023-10-17T10:31:30.515Z,191.36
2023-10-17T10:32:25.909Z,192.37
2023-10-17T10:33:21.401Z,189.48
2023-10-17T10:34:16.596Z,189.26
2023-10-17T10:35:12.113Z,189.81
2023-10-17T10:36:07.433Z,189.92
2023-10-17T10:37:02.914Z,188.83
2023-10-17T10:37:58.256Z,189.15
2023-10-17T10:38:53.723Z,189.37
2023-10-17T10:39:49.059Z,192.26
2023-10-17T10:40:46.415Z,196.05
2023-10-17T10:41:39.851Z,197.58
2023-10-17T10:42:35.363Z,199.99
2023-10-17T10:43:30.847Z,198.54
2023-10-17T10:44:26.363Z,197.58
2023-10-17T10:45:21.917Z,190.58
2023-10-17T10:46:19.494Z,190.69
2023-10-17T10:47:12.683Z,189.81
2023-10-17T10:48:08.126Z,192.93
2023-10-17T10:49:03.605Z,192.82
2023-10-17T10:49:59.139Z,193.85
2023-10-17T10:50:54.347Z,195.46
2023-10-17T10:51:49.779Z,195.35
2023-10-17T10:52:45.116Z,197.23
2023-10-17T10:53:40.780Z,198.66
2023-10-17T10:54:36.152Z,199.02
2023-10-17T10:55:31.768Z,199.26
2023-10-17T10:56:27.109Z,198.78
2023-10-17T10:57:22.670Z,197.70
2023-10-17T10:58:17.989Z,195.70
2023-10-17T10:59:13.665Z,195.70
2023-10-17T11:00:09.087Z,192.48
2023-10-17T11:01:04.609Z,190.91
2023-10-17T11:01:59.912Z,190.91
2023-10-17T11:02:55.332Z,189.48
2023-10-17T11:03:50.819Z,187.00
2023-10-17T11:04:46.236Z,185.52
2023-10-17T11:05:41.789Z,186.24
2023-10-17T11:06:37.287Z,184.60
2023-10-17T11:07:32.676Z,183.78
2023-10-17T11:08:28.112Z,181.58
2023-10-17T11:09:23.532Z,179.05
2023-10-17T11:10:19.148Z,176.21
2023-10-17T11:11:14.683Z,172.75
2023-10-17T11:12:09.920Z,172.57
2023-10-17T11:13:05.472Z,173.83
2023-10-17T11:14:01.582Z,175.10
2023-10-17T11:15:05.110Z,178.86
2023-10-17T11:15:52.797Z,180.21
2023-10-17T11:16:46.966Z,177.53
2023-10-17T11:17:42.510Z,176.77
2023-10-17T11:18:37.894Z,175.84
2023-10-17T11:19:33.397Z,175.84
2023-10-17T11:20:28.745Z,176.59
2023-10-17T11:21:24.533Z,176.21
2023-10-17T11:22:19.665Z,178.10
2023-10-17T11:23:15.158Z,177.72
2023-10-17T11:24:10.548Z,175.84
2023-10-17T11:25:06.115Z,173.83
2023-10-17T11:26:07.404Z,173.47
2023-10-17T11:26:58.013Z,175.66
2023-10-17T11:27:52.420Z,177.15
2023-10-17T11:28:48.134Z,171.51
2023-10-17T11:29:43.464Z,167.38
2023-10-17T11:30:39.046Z,166.88
2023-10-17T11:31:34.533Z,168.73
2023-10-17T11:32:29.925Z,168.56
2023-10-17T11:33:25.298Z,167.88
2023-10-17T11:34:20.917Z,170.63